sensor_id;sensor_type;location;lat;lon;timestamp;P1;durP1;ratioP1;P2;durP2;ratioP2
31734;SDS011;18313;48.518;9.124;2024-01-27T00:02:08;4.35;;;2.65;;
31734;SDS011;18313;48.518;9.124;2024-01-27T00:04:35;7.50;;;2.78;;
31734;SDS011;18313;48.518;9.124;2024-01-27T00:07:06;6.00;;;2.67;;
31734;SDS011;18313;48.518;9.124;2024-01-27T00:09:33;6.88;;;2.85;;
31734;SDS011;18313;48.518;9.124;2024-01-27T00:12:00;6.13;;;2.45;;
31734;SDS011;18313;48.518;9.124;2024-01-27T00:14:28;8.45;;;3.17;;
31734;SDS011;18313;48.518;9.124;2024-01-27T00:16:55;4.75;;;2.40;;
31734;SDS011;18313;48.518;9.124;2024-01-27T00:19:22;4.97;;;2.70;;
31734;SDS011;18313;48.518;9.124;2024-01-27T00:21:49;4.93;;;2.45;;
31734;SDS011;18313;48.518;9.124;2024-01-27T00:24:16;7.35;;;2.42;;
31734;SDS011;18313;48.518;9.124;2024-01-27T00:26:44;5.32;;;2.35;;
31734;SDS011;18313;48.518;9.124;2024-01-27T00:29:11;7.97;;;2.90;;
31734;SDS011;18313;48.518;9.124;2024-01-27T00:31:38;7.68;;;2.60;;
31734;SDS011;18313;48.518;9.124;2024-01-27T00:34:05;6.95;;;2.50;;
31734;SDS011;18313;48.518;9.124;2024-01-27T00:36:33;7.18;;;2.85;;
31734;SDS011;18313;48.518;9.124;2024-01-27T00:39:03;9.50;;;2.50;;
31734;SDS011;18313;48.518;9.124;2024-01-27T00:41:31;6.82;;;2.55;;
31734;SDS011;18313;48.518;9.124;2024-01-27T00:43:58;7.80;;;2.70;;
31734;SDS011;18313;48.518;9.124;2024-01-27T00:46:25;7.80;;;2.78;;
31734;SDS011;18313;48.518;9.124;2024-01-27T00:48:52;7.60;;;2.70;;
31734;SDS011;18313;48.518;9.124;2024-01-27T00:51:20;6.97;;;2.35;;
31734;SDS011;18313;48.518;9.124;2024-01-27T00:53:47;6.00;;;2.45;;
31734;SDS011;18313;48.518;9.124;2024-01-27T00:56:14;7.63;;;2.50;;
31734;SDS011;18313;48.518;9.124;2024-01-27T00:58:42;8.50;;;2.40;;
31734;SDS011;18313;48.518;9.124;2024-01-27T01:01:09;8.57;;;2.72;;
31734;SDS011;18313;48.518;9.124;2024-01-27T01:03:36;7.07;;;2.38;;
31734;SDS011;18313;48.518;9.124;2024-01-27T01:06:03;5.93;;;2.45;;
31734;SDS011;18313;48.518;9.124;2024-01-27T01:08:31;8.05;;;2.67;;
31734;SDS011;18313;48.518;9.124;2024-01-27T01:10:58;8.57;;;2.63;;
31734;SDS011;18313;48.518;9.124;2024-01-27T01:13:26;7.82;;;2.17;;
31734;SDS011;18313;48.518;9.124;2024-01-27T01:15:53;8.98;;;2.80;;
31734;SDS011;18313;48.518;9.124;2024-01-27T01:18:20;9.20;;;2.53;;
31734;SDS011;18313;48.518;9.124;2024-01-27T01:20:47;6.95;;;2.50;;
31734;SDS011;18313;48.518;9.124;2024-01-27T01:23:14;6.55;;;2.60;;
31734;SDS011;18313;48.518;9.124;2024-01-27T01:25:41;4.50;;;2.28;;
31734;SDS011;18313;48.518;9.124;2024-01-27T01:28:09;6.20;;;2.30;;
31734;SDS011;18313;48.518;9.124;2024-01-27T01:30:36;7.85;;;2.40;;
31734;SDS011;18313;48.518;9.124;2024-01-27T01:33:03;8.50;;;2.97;;
31734;SDS011;18313;48.518;9.124;2024-01-27T01:35:30;9.35;;;3.35;;
31734;SDS011;18313;48.518;9.124;2024-01-27T01:37:58;12.07;;;4.40;;
31734;SDS011;18313;48.518;9.124;2024-01-27T01:40:25;9.68;;;3.40;;
31734;SDS011;18313;48.518;9.124;2024-01-27T01:42:52;7.25;;;3.53;;
31734;SDS011;18313;48.518;9.124;2024-01-27T01:45:19;7.07;;;2.95;;
31734;SDS011;18313;48.518;9.124;2024-01-27T01:47:47;7.18;;;2.97;;
31734;SDS011;18313;48.518;9.124;2024-01-27T01:50:14;6.75;;;2.80;;
31734;SDS011;18313;48.518;9.124;2024-01-27T01:52:42;11.65;;;3.50;;
31734;SDS011;18313;48.518;9.124;2024-01-27T01:55:09;7.20;;;3.00;;
31734;SDS011;18313;48.518;9.124;2024-01-27T01:57:36;11.38;;;3.40;;
31734;SDS011;18313;48.518;9.124;2024-01-27T02:00:04;5.43;;;3.10;;
31734;SDS011;18313;48.518;9.124;2024-01-27T02:02:32;7.35;;;3.20;;
31734;SDS011;18313;48.518;9.124;2024-01-27T02:04:59;9.57;;;3.28;;
31734;SDS011;18313;48.518;9.124;2024-01-27T02:07:28;9.45;;;3.83;;
31734;SDS011;18313;48.518;9.124;2024-01-27T02:09:55;9.38;;;5.32;;
31734;SDS011;18313;48.518;9.124;2024-01-27T02:12:22;9.73;;;4.40;;
31734;SDS011;18313;48.518;9.124;2024-01-27T02:14:50;11.07;;;5.07;;
31734;SDS011;18313;48.518;9.124;2024-01-27T02:17:17;8.63;;;4.93;;
31734;SDS011;18313;48.518;9.124;2024-01-27T02:19:44;12.13;;;4.28;;
31734;SDS011;18313;48.518;9.124;2024-01-27T02:22:11;10.73;;;4.88;;
31734;SDS011;18313;48.518;9.124;2024-01-27T02:24:38;12.43;;;5.70;;
31734;SDS011;18313;48.518;9.124;2024-01-27T02:27:06;12.10;;;6.22;;
31734;SDS011;18313;48.518;9.124;2024-01-27T02:29:33;10.48;;;5.82;;
31734;SDS011;18313;48.518;9.124;2024-01-27T02:32:00;11.63;;;4.95;;
31734;SDS011;18313;48.518;9.124;2024-01-27T02:34:27;11.65;;;5.93;;
31734;SDS011;18313;48.518;9.124;2024-01-27T02:36:54;12.07;;;5.65;;
31734;SDS011;18313;48.518;9.124;2024-01-27T02:39:22;10.07;;;5.38;;
31734;SDS011;18313;48.518;9.124;2024-01-27T02:41:49;8.35;;;4.13;;
31734;SDS011;18313;48.518;9.124;2024-01-27T02:44:16;15.00;;;4.78;;
31734;SDS011;18313;48.518;9.124;2024-01-27T02:46:43;8.63;;;4.03;;
31734;SDS011;18313;48.518;9.124;2024-01-27T02:49:10;9.18;;;3.72;;
31734;SDS011;18313;48.518;9.124;2024-01-27T02:51:38;8.95;;;4.68;;
31734;SDS011;18313;48.518;9.124;2024-01-27T02:54:05;8.63;;;5.15;;
31734;SDS011;18313;48.518;9.124;2024-01-27T02:56:33;9.05;;;4.70;;
31734;SDS011;18313;48.518;9.124;2024-01-27T02:59:00;9.57;;;4.85;;
31734;SDS011;18313;48.518;9.124;2024-01-27T03:01:28;10.80;;;5.45;;
31734;SDS011;18313;48.518;9.124;2024-01-27T03:03:55;8.85;;;5.60;;
31734;SDS011;18313;48.518;9.124;2024-01-27T03:06:23;9.70;;;4.68;;
31734;SDS011;18313;48.518;9.124;2024-01-27T03:08:50;10.68;;;4.40;;
31734;SDS011;18313;48.518;9.124;2024-01-27T03:11:17;8.27;;;3.72;;
31734;SDS011;18313;48.518;9.124;2024-01-27T03:13:44;7.65;;;3.75;;
31734;SDS011;18313;48.518;9.124;2024-01-27T03:16:12;7.03;;;3.50;;
31734;SDS011;18313;48.518;9.124;2024-01-27T03:18:39;7.47;;;3.63;;
31734;SDS011;18313;48.518;9.124;2024-01-27T03:21:07;9.57;;;4.10;;
31734;SDS011;18313;48.518;9.124;2024-01-27T03:23:35;8.77;;;4.05;;
31734;SDS011;18313;48.518;9.124;2024-01-27T03:26:02;10.98;;;4.47;;
31734;SDS011;18313;48.518;9.124;2024-01-27T03:28:32;11.23;;;4.32;;
31734;SDS011;18313;48.518;9.124;2024-01-27T03:31:00;8.77;;;4.15;;
31734;SDS011;18313;48.518;9.124;2024-01-27T03:33:27;9.35;;;4.30;;
31734;SDS011;18313;48.518;9.124;2024-01-27T03:35:57;6.22;;;3.92;;
31734;SDS011;18313;48.518;9.124;2024-01-27T03:38:24;8.75;;;4.43;;
31734;SDS011;18313;48.518;9.124;2024-01-27T03:40:51;8.98;;;4.18;;
31734;SDS011;18313;48.518;9.124;2024-01-27T03:43:20;7.45;;;3.95;;
31734;SDS011;18313;48.518;9.124;2024-01-27T03:45:47;8.05;;;4.07;;
31734;SDS011;18313;48.518;9.124;2024-01-27T03:48:14;6.15;;;3.80;;
31734;SDS011;18313;48.518;9.124;2024-01-27T03:50:41;7.65;;;4.00;;
31734;SDS011;18313;48.518;9.124;2024-01-27T03:53:09;8.20;;;3.92;;
31734;SDS011;18313;48.518;9.124;2024-01-27T03:55:36;7.82;;;3.90;;
31734;SDS011;18313;48.518;9.124;2024-01-27T03:58:04;9.50;;;4.22;;
31734;SDS011;18313;48.518;9.124;2024-01-27T04:00:31;7.25;;;3.72;;
31734;SDS011;18313;48.518;9.124;2024-01-27T04:03:00;7.55;;;4.40;;
31734;SDS011;18313;48.518;9.124;2024-01-27T04:05:28;8.10;;;4.45;;
31734;SDS011;18313;48.518;9.124;2024-01-27T04:07:56;9.50;;;4.10;;
31734;SDS011;18313;48.518;9.124;2024-01-27T04:10:23;9.63;;;5.13;;
31734;SDS011;18313;48.518;9.124;2024-01-27T04:12:51;9.63;;;5.22;;
31734;SDS011;18313;48.518;9.124;2024-01-27T04:15:18;7.80;;;4.82;;
31734;SDS011;18313;48.518;9.124;2024-01-27T04:17:46;9.18;;;5.38;;
31734;SDS011;18313;48.518;9.124;2024-01-27T04:20:13;9.15;;;5.07;;
31734;SDS011;18313;48.518;9.124;2024-01-27T04:22:41;11.18;;;4.88;;
31734;SDS011;18313;48.518;9.124;2024-01-27T04:25:08;9.27;;;4.70;;
31734;SDS011;18313;48.518;9.124;2024-01-27T04:27:36;8.10;;;4.38;;
31734;SDS011;18313;48.518;9.124;2024-01-27T04:30:07;8.05;;;4.78;;
31734;SDS011;18313;48.518;9.124;2024-01-27T04:32:35;12.95;;;6.22;;
31734;SDS011;18313;48.518;9.124;2024-01-27T04:35:03;9.05;;;5.50;;
31734;SDS011;18313;48.518;9.124;2024-01-27T04:37:31;13.73;;;5.90;;
31734;SDS011;18313;48.518;9.124;2024-01-27T04:39:58;9.65;;;5.72;;
31734;SDS011;18313;48.518;9.124;2024-01-27T04:42:25;7.07;;;4.28;;
31734;SDS011;18313;48.518;9.124;2024-01-27T04:44:53;9.30;;;3.97;;
31734;SDS011;18313;48.518;9.124;2024-01-27T04:47:20;7.45;;;3.72;;
31734;SDS011;18313;48.518;9.124;2024-01-27T04:49:47;8.25;;;3.40;;
31734;SDS011;18313;48.518;9.124;2024-01-27T04:52:15;4.75;;;3.33;;
31734;SDS011;18313;48.518;9.124;2024-01-27T04:54:42;6.85;;;3.70;;
31734;SDS011;18313;48.518;9.124;2024-01-27T04:57:10;6.53;;;3.80;;
31734;SDS011;18313;48.518;9.124;2024-01-27T04:59:37;5.68;;;3.65;;
31734;SDS011;18313;48.518;9.124;2024-01-27T05:02:04;8.85;;;4.30;;
31734;SDS011;18313;48.518;9.124;2024-01-27T05:04:32;6.90;;;3.95;;
31734;SDS011;18313;48.518;9.124;2024-01-27T05:06:59;10.43;;;4.00;;
31734;SDS011;18313;48.518;9.124;2024-01-27T05:09:27;9.25;;;4.00;;
31734;SDS011;18313;48.518;9.124;2024-01-27T05:11:54;7.50;;;3.95;;
31734;SDS011;18313;48.518;9.124;2024-01-27T05:14:22;12.30;;;4.28;;
31734;SDS011;18313;48.518;9.124;2024-01-27T05:16:49;8.32;;;4.25;;
31734;SDS011;18313;48.518;9.124;2024-01-27T05:19:17;9.48;;;4.43;;
31734;SDS011;18313;48.518;9.124;2024-01-27T05:21:44;11.73;;;5.93;;
31734;SDS011;18313;48.518;9.124;2024-01-27T05:24:12;7.95;;;4.82;;
31734;SDS011;18313;48.518;9.124;2024-01-27T05:26:39;10.07;;;4.88;;
31734;SDS011;18313;48.518;9.124;2024-01-27T05:29:07;11.63;;;5.60;;
31734;SDS011;18313;48.518;9.124;2024-01-27T05:31:35;14.13;;;5.68;;
31734;SDS011;18313;48.518;9.124;2024-01-27T05:34:03;11.07;;;4.95;;
31734;SDS011;18313;48.518;9.124;2024-01-27T05:36:31;8.65;;;5.05;;
31734;SDS011;18313;48.518;9.124;2024-01-27T05:38:59;8.48;;;4.80;;
31734;SDS011;18313;48.518;9.124;2024-01-27T05:41:27;5.95;;;4.07;;
31734;SDS011;18313;48.518;9.124;2024-01-27T05:43:56;6.82;;;4.03;;
31734;SDS011;18313;48.518;9.124;2024-01-27T05:46:24;8.40;;;4.18;;
31734;SDS011;18313;48.518;9.124;2024-01-27T05:48:52;11.80;;;4.10;;
31734;SDS011;18313;48.518;9.124;2024-01-27T05:51:21;11.10;;;3.67;;
31734;SDS011;18313;48.518;9.124;2024-01-27T05:53:49;7.55;;;3.65;;
31734;SDS011;18313;48.518;9.124;2024-01-27T05:56:17;8.65;;;4.35;;
31734;SDS011;18313;48.518;9.124;2024-01-27T05:58:47;21.80;;;4.78;;
31734;SDS011;18313;48.518;9.124;2024-01-27T06:01:17;25.35;;;4.70;;
31734;SDS011;18313;48.518;9.124;2024-01-27T06:03:45;11.32;;;4.80;;
31734;SDS011;18313;48.518;9.124;2024-01-27T06:06:13;7.53;;;3.85;;
31734;SDS011;18313;48.518;9.124;2024-01-27T06:08:41;6.28;;;3.45;;
31734;SDS011;18313;48.518;9.124;2024-01-27T06:11:08;8.93;;;4.40;;
31734;SDS011;18313;48.518;9.124;2024-01-27T06:13:36;6.90;;;4.00;;
31734;SDS011;18313;48.518;9.124;2024-01-27T06:16:07;6.38;;;4.00;;
31734;SDS011;18313;48.518;9.124;2024-01-27T06:18:37;10.68;;;4.18;;
31734;SDS011;18313;48.518;9.124;2024-01-27T06:21:06;8.60;;;4.63;;
31734;SDS011;18313;48.518;9.124;2024-01-27T06:23:33;9.43;;;6.40;;
31734;SDS011;18313;48.518;9.124;2024-01-27T06:26:04;11.75;;;7.63;;
31734;SDS011;18313;48.518;9.124;2024-01-27T06:28:35;16.80;;;10.00;;
31734;SDS011;18313;48.518;9.124;2024-01-27T06:31:03;10.63;;;5.97;;
31734;SDS011;18313;48.518;9.124;2024-01-27T06:33:31;15.27;;;4.85;;
31734;SDS011;18313;48.518;9.124;2024-01-27T06:35:59;7.80;;;3.58;;
31734;SDS011;18313;48.518;9.124;2024-01-27T06:38:26;6.97;;;3.58;;
31734;SDS011;18313;48.518;9.124;2024-01-27T06:40:54;16.35;;;3.78;;
31734;SDS011;18313;48.518;9.124;2024-01-27T06:43:22;13.60;;;4.00;;
31734;SDS011;18313;48.518;9.124;2024-01-27T06:45:50;16.98;;;4.22;;
31734;SDS011;18313;48.518;9.124;2024-01-27T06:48:17;31.42;;;4.35;;
31734;SDS011;18313;48.518;9.124;2024-01-27T06:50:45;17.60;;;4.35;;
31734;SDS011;18313;48.518;9.124;2024-01-27T06:53:15;6.43;;;4.50;;
31734;SDS011;18313;48.518;9.124;2024-01-27T06:55:42;10.88;;;4.72;;
31734;SDS011;18313;48.518;9.124;2024-01-27T06:58:10;7.22;;;4.82;;
31734;SDS011;18313;48.518;9.124;2024-01-27T07:00:37;5.40;;;4.13;;
31734;SDS011;18313;48.518;9.124;2024-01-27T07:03:05;16.65;;;5.10;;
31734;SDS011;18313;48.518;9.124;2024-01-27T07:05:33;20.27;;;5.78;;
31734;SDS011;18313;48.518;9.124;2024-01-27T07:08:06;10.82;;;5.63;;
31734;SDS011;18313;48.518;9.124;2024-01-27T07:10:34;35.17;;;6.30;;
31734;SDS011;18313;48.518;9.124;2024-01-27T07:13:02;12.45;;;6.65;;
31734;SDS011;18313;48.518;9.124;2024-01-27T07:15:29;16.80;;;6.80;;
31734;SDS011;18313;48.518;9.124;2024-01-27T07:17:57;39.85;;;7.40;;
31734;SDS011;18313;48.518;9.124;2024-01-27T07:20:24;32.20;;;5.82;;
31734;SDS011;18313;48.518;9.124;2024-01-27T07:22:52;63.40;;;7.88;;
31734;SDS011;18313;48.518;9.124;2024-01-27T07:25:19;35.85;;;6.93;;
31734;SDS011;18313;48.518;9.124;2024-01-27T07:27:47;13.57;;;5.75;;
31734;SDS011;18313;48.518;9.124;2024-01-27T07:30:14;9.15;;;6.32;;
31734;SDS011;18313;48.518;9.124;2024-01-27T07:32:43;13.85;;;8.13;;
31734;SDS011;18313;48.518;9.124;2024-01-27T07:35:11;10.25;;;7.10;;
31734;SDS011;18313;48.518;9.124;2024-01-27T07:37:39;14.75;;;6.68;;
31734;SDS011;18313;48.518;9.124;2024-01-27T07:40:07;15.57;;;6.00;;
31734;SDS011;18313;48.518;9.124;2024-01-27T07:42:36;10.07;;;5.50;;
31734;SDS011;18313;48.518;9.124;2024-01-27T07:45:04;14.50;;;5.55;;
31734;SDS011;18313;48.518;9.124;2024-01-27T07:47:31;34.67;;;5.90;;
31734;SDS011;18313;48.518;9.124;2024-01-27T07:49:59;33.75;;;5.55;;
31734;SDS011;18313;48.518;9.124;2024-01-27T07:52:26;26.38;;;5.35;;
31734;SDS011;18313;48.518;9.124;2024-01-27T07:54:53;15.75;;;5.10;;
31734;SDS011;18313;48.518;9.124;2024-01-27T07:57:21;7.53;;;5.07;;
31734;SDS011;18313;48.518;9.124;2024-01-27T07:59:48;33.28;;;5.05;;
31734;SDS011;18313;48.518;9.124;2024-01-27T08:02:16;9.60;;;5.07;;
31734;SDS011;18313;48.518;9.124;2024-01-27T08:04:43;74.90;;;5.88;;
31734;SDS011;18313;48.518;9.124;2024-01-27T08:07:10;33.88;;;5.47;;
31734;SDS011;18313;48.518;9.124;2024-01-27T08:09:38;27.80;;;5.25;;
31734;SDS011;18313;48.518;9.124;2024-01-27T08:12:06;103.18;;;8.18;;
31734;SDS011;18313;48.518;9.124;2024-01-27T08:14:33;8.27;;;4.47;;
31734;SDS011;18313;48.518;9.124;2024-01-27T08:17:02;60.17;;;5.47;;
31734;SDS011;18313;48.518;9.124;2024-01-27T08:19:30;223.85;;;10.15;;
31734;SDS011;18313;48.518;9.124;2024-01-27T08:21:57;266.13;;;14.32;;
31734;SDS011;18313;48.518;9.124;2024-01-27T08:24:25;320.67;;;15.63;;
31734;SDS011;18313;48.518;9.124;2024-01-27T08:26:53;178.50;;;10.18;;
31734;SDS011;18313;48.518;9.124;2024-01-27T08:29:21;241.55;;;14.05;;
31734;SDS011;18313;48.518;9.124;2024-01-27T08:31:49;159.57;;;7.78;;
31734;SDS011;18313;48.518;9.124;2024-01-27T08:34:17;70.68;;;7.60;;
31734;SDS011;18313;48.518;9.124;2024-01-27T08:36:44;165.90;;;8.30;;
31734;SDS011;18313;48.518;9.124;2024-01-27T08:39:12;146.68;;;11.07;;
31734;SDS011;18313;48.518;9.124;2024-01-27T08:41:40;13.90;;;5.70;;
31734;SDS011;18313;48.518;9.124;2024-01-27T08:44:07;50.08;;;7.30;;
31734;SDS011;18313;48.518;9.124;2024-01-27T08:46:35;152.20;;;9.65;;
31734;SDS011;18313;48.518;9.124;2024-01-27T08:49:02;158.82;;;10.15;;
31734;SDS011;18313;48.518;9.124;2024-01-27T08:51:30;120.22;;;10.25;;
31734;SDS011;18313;48.518;9.124;2024-01-27T08:53:57;110.05;;;9.32;;
31734;SDS011;18313;48.518;9.124;2024-01-27T08:56:24;105.00;;;8.38;;
31734;SDS011;18313;48.518;9.124;2024-01-27T08:58:51;197.07;;;9.65;;
31734;SDS011;18313;48.518;9.124;2024-01-27T09:01:19;187.45;;;9.18;;
31734;SDS011;18313;48.518;9.124;2024-01-27T09:03:47;287.10;;;16.00;;
31734;SDS011;18313;48.518;9.124;2024-01-27T09:06:14;34.15;;;6.57;;
31734;SDS011;18313;48.518;9.124;2024-01-27T09:08:43;61.60;;;6.72;;
31734;SDS011;18313;48.518;9.124;2024-01-27T09:11:12;125.03;;;9.68;;
31734;SDS011;18313;48.518;9.124;2024-01-27T09:13:40;61.97;;;7.30;;
31734;SDS011;18313;48.518;9.124;2024-01-27T09:16:08;277.23;;;13.25;;
31734;SDS011;18313;48.518;9.124;2024-01-27T09:18:39;184.00;;;12.02;;
31734;SDS011;18313;48.518;9.124;2024-01-27T09:21:07;192.82;;;15.48;;
31734;SDS011;18313;48.518;9.124;2024-01-27T09:23:34;58.38;;;8.60;;
31734;SDS011;18313;48.518;9.124;2024-01-27T09:26:02;49.65;;;7.53;;
31734;SDS011;18313;48.518;9.124;2024-01-27T09:28:29;117.55;;;15.95;;
31734;SDS011;18313;48.518;9.124;2024-01-27T09:30:57;80.60;;;11.80;;
31734;SDS011;18313;48.518;9.124;2024-01-27T09:33:24;97.55;;;11.10;;
31734;SDS011;18313;48.518;9.124;2024-01-27T09:35:52;44.08;;;8.70;;
31734;SDS011;18313;48.518;9.124;2024-01-27T09:38:20;162.93;;;12.82;;
31734;SDS011;18313;48.518;9.124;2024-01-27T09:40:47;99.10;;;8.07;;
31734;SDS011;18313;48.518;9.124;2024-01-27T09:43:14;141.82;;;9.60;;
31734;SDS011;18313;48.518;9.124;2024-01-27T09:45:45;58.80;;;7.22;;
31734;SDS011;18313;48.518;9.124;2024-01-27T09:48:13;28.42;;;6.13;;
31734;SDS011;18313;48.518;9.124;2024-01-27T09:50:41;82.55;;;7.97;;
31734;SDS011;18313;48.518;9.124;2024-01-27T09:53:08;191.05;;;13.05;;
31734;SDS011;18313;48.518;9.124;2024-01-27T09:55:37;121.45;;;13.55;;
31734;SDS011;18313;48.518;9.124;2024-01-27T09:58:05;86.35;;;10.15;;
31734;SDS011;18313;48.518;9.124;2024-01-27T10:00:33;44.83;;;9.27;;
31734;SDS011;18313;48.518;9.124;2024-01-27T10:03:04;126.82;;;12.48;;
31734;SDS011;18313;48.518;9.124;2024-01-27T10:05:33;77.32;;;8.65;;
31734;SDS011;18313;48.518;9.124;2024-01-27T10:08:05;276.02;;;12.20;;
31734;SDS011;18313;48.518;9.124;2024-01-27T10:10:35;80.22;;;7.57;;
31734;SDS011;18313;48.518;9.124;2024-01-27T10:13:02;68.18;;;9.43;;
31734;SDS011;18313;48.518;9.124;2024-01-27T10:15:30;18.67;;;8.13;;
31734;SDS011;18313;48.518;9.124;2024-01-27T10:18:07;17.77;;;8.15;;
31734;SDS011;18313;48.518;9.124;2024-01-27T10:20:35;20.88;;;9.30;;
31734;SDS011;18313;48.518;9.124;2024-01-27T10:23:12;16.55;;;10.40;;
31734;SDS011;18313;48.518;9.124;2024-01-27T10:25:40;17.55;;;9.77;;
31734;SDS011;18313;48.518;9.124;2024-01-27T10:28:08;12.27;;;7.90;;
31734;SDS011;18313;48.518;9.124;2024-01-27T10:30:36;22.13;;;8.38;;
31734;SDS011;18313;48.518;9.124;2024-01-27T10:33:04;18.55;;;7.70;;
31734;SDS011;18313;48.518;9.124;2024-01-27T10:35:32;10.57;;;7.35;;
31734;SDS011;18313;48.518;9.124;2024-01-27T10:38:01;21.15;;;8.52;;
31734;SDS011;18313;48.518;9.124;2024-01-27T10:40:29;28.35;;;9.60;;
31734;SDS011;18313;48.518;9.124;2024-01-27T10:45:37;17.35;;;9.85;;
31734;SDS011;18313;48.518;9.124;2024-01-27T10:48:07;19.63;;;10.02;;
31734;SDS011;18313;48.518;9.124;2024-01-27T10:50:38;17.38;;;9.80;;
31734;SDS011;18313;48.518;9.124;2024-01-27T10:53:20;16.25;;;9.43;;
31734;SDS011;18313;48.518;9.124;2024-01-27T10:55:54;15.18;;;8.95;;
31734;SDS011;18313;48.518;9.124;2024-01-27T10:58:25;15.70;;;9.13;;
31734;SDS011;18313;48.518;9.124;2024-01-27T11:00:56;17.88;;;9.32;;
31734;SDS011;18313;48.518;9.124;2024-01-27T11:03:26;13.32;;;7.72;;
31734;SDS011;18313;48.518;9.124;2024-01-27T11:05:55;11.60;;;7.45;;
31734;SDS011;18313;48.518;9.124;2024-01-27T11:08:24;13.65;;;8.18;;
31734;SDS011;18313;48.518;9.124;2024-01-27T11:10:55;12.68;;;8.40;;
31734;SDS011;18313;48.518;9.124;2024-01-27T11:13:22;14.48;;;8.73;;
31734;SDS011;18313;48.518;9.124;2024-01-27T11:15:54;11.50;;;7.10;;
31734;SDS011;18313;48.518;9.124;2024-01-27T11:18:22;11.68;;;7.55;;
31734;SDS011;18313;48.518;9.124;2024-01-27T11:20:54;10.45;;;7.43;;
31734;SDS011;18313;48.518;9.124;2024-01-27T11:23:31;12.65;;;7.60;;
31734;SDS011;18313;48.518;9.124;2024-01-27T11:26:03;11.98;;;7.50;;
31734;SDS011;18313;48.518;9.124;2024-01-27T11:28:31;14.43;;;7.75;;
31734;SDS011;18313;48.518;9.124;2024-01-27T11:31:02;14.07;;;7.85;;
31734;SDS011;18313;48.518;9.124;2024-01-27T11:33:33;12.82;;;8.48;;
31734;SDS011;18313;48.518;9.124;2024-01-27T11:36:18;18.15;;;9.13;;
31734;SDS011;18313;48.518;9.124;2024-01-27T11:38:51;18.70;;;9.50;;
31734;SDS011;18313;48.518;9.124;2024-01-27T11:41:25;22.50;;;13.07;;
31734;SDS011;18313;48.518;9.124;2024-01-27T11:43:58;22.00;;;12.50;;
31734;SDS011;18313;48.518;9.124;2024-01-27T11:46:26;17.20;;;8.88;;
31734;SDS011;18313;48.518;9.124;2024-01-27T11:48:54;19.02;;;9.25;;
31734;SDS011;18313;48.518;9.124;2024-01-27T11:51:22;21.02;;;6.50;;
31734;SDS011;18313;48.518;9.124;2024-01-27T11:53:52;16.23;;;7.50;;
31734;SDS011;18313;48.518;9.124;2024-01-27T11:56:19;15.95;;;7.30;;
31734;SDS011;18313;48.518;9.124;2024-01-27T11:58:48;14.77;;;4.57;;
31734;SDS011;18313;48.518;9.124;2024-01-27T12:01:16;12.88;;;5.30;;
31734;SDS011;18313;48.518;9.124;2024-01-27T12:03:44;11.23;;;5.88;;
31734;SDS011;18313;48.518;9.124;2024-01-27T12:06:12;12.68;;;5.75;;
31734;SDS011;18313;48.518;9.124;2024-01-27T12:08:41;15.55;;;6.28;;
31734;SDS011;18313;48.518;9.124;2024-01-27T12:11:15;39.47;;;17.33;;
31734;SDS011;18313;48.518;9.124;2024-01-27T12:13:50;19.35;;;10.35;;
31734;SDS011;18313;48.518;9.124;2024-01-27T12:16:17;13.80;;;7.45;;
31734;SDS011;18313;48.518;9.124;2024-01-27T12:18:45;12.65;;;7.13;;
31734;SDS011;18313;48.518;9.124;2024-01-27T12:21:12;14.05;;;7.60;;
31734;SDS011;18313;48.518;9.124;2024-01-27T12:23:53;13.07;;;8.00;;
31734;SDS011;18313;48.518;9.124;2024-01-27T12:26:22;13.25;;;7.63;;
31734;SDS011;18313;48.518;9.124;2024-01-27T12:28:56;15.15;;;8.52;;
31734;SDS011;18313;48.518;9.124;2024-01-27T12:31:24;15.68;;;8.63;;
31734;SDS011;18313;48.518;9.124;2024-01-27T12:33:53;15.90;;;8.20;;
31734;SDS011;18313;48.518;9.124;2024-01-27T12:36:23;26.23;;;13.90;;
31734;SDS011;18313;48.518;9.124;2024-01-27T12:39:00;20.65;;;10.95;;
31734;SDS011;18313;48.518;9.124;2024-01-27T12:41:30;21.92;;;10.95;;
31734;SDS011;18313;48.518;9.124;2024-01-27T12:44:00;14.85;;;9.23;;
31734;SDS011;18313;48.518;9.124;2024-01-27T12:46:28;13.30;;;8.07;;
31734;SDS011;18313;48.518;9.124;2024-01-27T12:48:55;14.45;;;8.10;;
31734;SDS011;18313;48.518;9.124;2024-01-27T12:51:23;12.75;;;7.75;;
31734;SDS011;18313;48.518;9.124;2024-01-27T12:53:51;10.55;;;7.00;;
31734;SDS011;18313;48.518;9.124;2024-01-27T12:56:19;13.60;;;7.20;;
31734;SDS011;18313;48.518;9.124;2024-01-27T12:58:46;11.10;;;6.60;;
31734;SDS011;18313;48.518;9.124;2024-01-27T13:01:13;13.32;;;6.50;;
31734;SDS011;18313;48.518;9.124;2024-01-27T13:03:41;10.27;;;5.85;;
31734;SDS011;18313;48.518;9.124;2024-01-27T13:06:11;14.45;;;7.35;;
31734;SDS011;18313;48.518;9.124;2024-01-27T13:08:40;13.02;;;8.00;;
31734;SDS011;18313;48.518;9.124;2024-01-27T13:11:08;9.65;;;6.75;;
31734;SDS011;18313;48.518;9.124;2024-01-27T13:13:36;10.05;;;6.57;;
31734;SDS011;18313;48.518;9.124;2024-01-27T13:16:04;9.60;;;6.03;;
31734;SDS011;18313;48.518;9.124;2024-01-27T13:18:32;10.80;;;6.13;;
31734;SDS011;18313;48.518;9.124;2024-01-27T13:20:59;10.52;;;6.00;;
31734;SDS011;18313;48.518;9.124;2024-01-27T13:23:27;11.15;;;6.20;;
31734;SDS011;18313;48.518;9.124;2024-01-27T13:25:54;10.05;;;6.35;;
31734;SDS011;18313;48.518;9.124;2024-01-27T13:28:42;12.88;;;7.50;;
31734;SDS011;18313;48.518;9.124;2024-01-27T13:31:09;12.57;;;7.53;;
31734;SDS011;18313;48.518;9.124;2024-01-27T13:33:37;12.10;;;7.38;;
31734;SDS011;18313;48.518;9.124;2024-01-27T13:36:05;11.05;;;7.25;;
31734;SDS011;18313;48.518;9.124;2024-01-27T13:38:33;12.80;;;7.65;;
31734;SDS011;18313;48.518;9.124;2024-01-27T13:41:02;12.77;;;7.82;;
31734;SDS011;18313;48.518;9.124;2024-01-27T13:43:29;14.32;;;8.38;;
31734;SDS011;18313;48.518;9.124;2024-01-27T13:45:56;12.05;;;8.35;;
31734;SDS011;18313;48.518;9.124;2024-01-27T13:48:24;13.57;;;8.45;;
31734;SDS011;18313;48.518;9.124;2024-01-27T13:50:52;14.43;;;8.15;;
31734;SDS011;18313;48.518;9.124;2024-01-27T13:53:20;16.10;;;8.48;;
31734;SDS011;18313;48.518;9.124;2024-01-27T13:55:48;16.10;;;9.05;;
31734;SDS011;18313;48.518;9.124;2024-01-27T13:58:16;16.77;;;8.20;;
31734;SDS011;18313;48.518;9.124;2024-01-27T14:00:44;16.35;;;9.57;;
31734;SDS011;18313;48.518;9.124;2024-01-27T14:03:12;15.50;;;8.63;;
31734;SDS011;18313;48.518;9.124;2024-01-27T14:05:40;13.70;;;8.35;;
31734;SDS011;18313;48.518;9.124;2024-01-27T14:08:09;16.30;;;9.10;;
31734;SDS011;18313;48.518;9.124;2024-01-27T14:10:37;13.10;;;8.10;;
31734;SDS011;18313;48.518;9.124;2024-01-27T14:13:06;13.98;;;8.57;;
31734;SDS011;18313;48.518;9.124;2024-01-27T14:15:36;16.00;;;8.95;;
31734;SDS011;18313;48.518;9.124;2024-01-27T14:18:03;14.75;;;8.95;;
31734;SDS011;18313;48.518;9.124;2024-01-27T14:20:33;14.18;;;8.00;;
31734;SDS011;18313;48.518;9.124;2024-01-27T14:23:03;14.80;;;8.40;;
31734;SDS011;18313;48.518;9.124;2024-01-27T14:25:31;17.17;;;8.10;;
31734;SDS011;18313;48.518;9.124;2024-01-27T14:27:58;16.90;;;7.13;;
31734;SDS011;18313;48.518;9.124;2024-01-27T14:30:25;12.45;;;6.05;;
31734;SDS011;18313;48.518;9.124;2024-01-27T14:32:53;11.25;;;5.75;;
31734;SDS011;18313;48.518;9.124;2024-01-27T14:35:20;10.50;;;5.68;;
31734;SDS011;18313;48.518;9.124;2024-01-27T14:37:47;13.02;;;6.10;;
31734;SDS011;18313;48.518;9.124;2024-01-27T14:40:15;9.48;;;5.50;;
31734;SDS011;18313;48.518;9.124;2024-01-27T14:42:42;10.13;;;5.10;;
31734;SDS011;18313;48.518;9.124;2024-01-27T14:45:12;14.80;;;5.60;;
31734;SDS011;18313;48.518;9.124;2024-01-27T14:47:39;13.88;;;5.03;;